sensor_id;sensor_type;location;lat;lon;timestamp;P1;durP1;ratioP1;P2;durP2;ratioP2
6185;SDS011;3126;52.738;8.316;2022-12-18T00:00:49;44.17;;;18.05;;
6185;SDS011;3126;52.738;8.316;2022-12-18T00:05:50;38.88;;;18.02;;
6185;SDS011;3126;52.738;8.316;2022-12-18T00:10:52;39.42;;;18.33;;
6185;SDS011;3126;52.738;8.316;2022-12-18T00:15:53;49.65;;;19.52;;
6185;SDS011;3126;52.738;8.316;2022-12-18T00:20:53;37.85;;;16.65;;
6185;SDS011;3126;52.738;8.316;2022-12-18T00:25:54;36.20;;;17.83;;
6185;SDS011;3126;52.738;8.316;2022-12-18T00:36:02;32.00;;;15.82;;
6185;SDS011;3126;52.738;8.316;2022-12-18T00:41:09;31.35;;;14.50;;
6185;SDS011;3126;52.738;8.316;2022-12-18T00:46:11;47.40;;;17.30;;
6185;SDS011;3126;52.738;8.316;2022-12-18T00:51:11;38.03;;;16.10;;
6185;SDS011;3126;52.738;8.316;2022-12-18T00:56:12;36.50;;;15.90;;
6185;SDS011;3126;52.738;8.316;2022-12-18T01:01:12;39.20;;;17.15;;
6185;SDS011;3126;52.738;8.316;2022-12-18T01:06:14;34.92;;;16.95;;
6185;SDS011;3126;52.738;8.316;2022-12-18T01:11:16;33.38;;;14.35;;
6185;SDS011;3126;52.738;8.316;2022-12-18T01:16:18;33.95;;;15.65;;
6185;SDS011;3126;52.738;8.316;2022-12-18T01:21:19;34.25;;;16.30;;
6185;SDS011;3126;52.738;8.316;2022-12-18T01:26:20;40.65;;;18.27;;
6185;SDS011;3126;52.738;8.316;2022-12-18T01:31:22;31.33;;;18.08;;
6185;SDS011;3126;52.738;8.316;2022-12-18T01:41:27;35.25;;;17.20;;
6185;SDS011;3126;52.738;8.316;2022-12-18T01:46:51;33.25;;;15.65;;
6185;SDS011;3126;52.738;8.316;2022-12-18T01:51:52;38.03;;;16.70;;
6185;SDS011;3126;52.738;8.316;2022-12-18T01:56:52;34.67;;;16.42;;
6185;SDS011;3126;52.738;8.316;2022-12-18T02:01:53;37.80;;;15.65;;
6185;SDS011;3126;52.738;8.316;2022-12-18T02:06:55;36.13;;;14.95;;
6185;SDS011;3126;52.738;8.316;2022-12-18T02:22:21;28.58;;;14.23;;
6185;SDS011;3126;52.738;8.316;2022-12-18T02:27:27;37.88;;;15.55;;
6185;SDS011;3126;52.738;8.316;2022-12-18T02:32:32;31.73;;;14.75;;
6185;SDS011;3126;52.738;8.316;2022-12-18T02:37:35;33.65;;;15.40;;
6185;SDS011;3126;52.738;8.316;2022-12-18T02:42:39;31.63;;;15.52;;
6185;SDS011;3126;52.738;8.316;2022-12-18T02:47:42;31.42;;;15.40;;
6185;SDS011;3126;52.738;8.316;2022-12-18T02:58:13;31.65;;;14.10;;
6185;SDS011;3126;52.738;8.316;2022-12-18T03:03:27;31.90;;;13.82;;
6185;SDS011;3126;52.738;8.316;2022-12-18T03:08:37;28.90;;;14.27;;
6185;SDS011;3126;52.738;8.316;2022-12-18T03:13:52;32.95;;;16.45;;
6185;SDS011;3126;52.738;8.316;2022-12-18T03:18:58;33.53;;;15.82;;
6185;SDS011;3126;52.738;8.316;2022-12-18T03:24:06;31.08;;;16.17;;
6185;SDS011;3126;52.738;8.316;2022-12-18T03:29:09;30.17;;;15.25;;
6185;SDS011;3126;52.738;8.316;2022-12-18T03:34:17;34.08;;;15.00;;
6185;SDS011;3126;52.738;8.316;2022-12-18T03:39:23;23.70;;;13.77;;
6185;SDS011;3126;52.738;8.316;2022-12-18T03:44:29;27.75;;;13.77;;
6185;SDS011;3126;52.738;8.316;2022-12-18T03:55:10;25.90;;;13.43;;
6185;SDS011;3126;52.738;8.316;2022-12-18T04:00:13;24.85;;;14.30;;
6185;SDS011;3126;52.738;8.316;2022-12-18T04:05:15;28.13;;;14.90;;
6185;SDS011;3126;52.738;8.316;2022-12-18T04:10:17;23.73;;;11.77;;
6185;SDS011;3126;52.738;8.316;2022-12-18T04:15:18;23.75;;;13.65;;
6185;SDS011;3126;52.738;8.316;2022-12-18T04:20:19;19.05;;;12.27;;
6185;SDS011;3126;52.738;8.316;2022-12-18T04:25:19;20.98;;;11.20;;
6185;SDS011;3126;52.738;8.316;2022-12-18T04:30:20;19.95;;;11.45;;
6185;SDS011;3126;52.738;8.316;2022-12-18T04:35:20;19.50;;;11.98;;
6185;SDS011;3126;52.738;8.316;2022-12-18T04:40:21;22.85;;;10.82;;
6185;SDS011;3126;52.738;8.316;2022-12-18T04:45:21;23.60;;;12.48;;
6185;SDS011;3126;52.738;8.316;2022-12-18T04:50:22;23.63;;;11.25;;
6185;SDS011;3126;52.738;8.316;2022-12-18T04:55:26;20.90;;;11.25;;
6185;SDS011;3126;52.738;8.316;2022-12-18T05:00:27;18.55;;;10.43;;
6185;SDS011;3126;52.738;8.316;2022-12-18T05:05:27;20.40;;;10.57;;
6185;SDS011;3126;52.738;8.316;2022-12-18T05:10:28;16.58;;;10.68;;
6185;SDS011;3126;52.738;8.316;2022-12-18T05:15:29;22.63;;;11.50;;
6185;SDS011;3126;52.738;8.316;2022-12-18T05:20:31;16.40;;;9.55;;
6185;SDS011;3126;52.738;8.316;2022-12-18T05:25:31;17.83;;;9.63;;
6185;SDS011;3126;52.738;8.316;2022-12-18T05:30:32;20.27;;;10.27;;
6185;SDS011;3126;52.738;8.316;2022-12-18T05:35:32;19.52;;;10.82;;
6185;SDS011;3126;52.738;8.316;2022-12-18T05:40:33;20.23;;;12.23;;
6185;SDS011;3126;52.738;8.316;2022-12-18T05:45:36;22.58;;;9.75;;
6185;SDS011;3126;52.738;8.316;2022-12-18T05:50:38;21.10;;;11.55;;
6185;SDS011;3126;52.738;8.316;2022-12-18T05:55:40;21.88;;;11.75;;
6185;SDS011;3126;52.738;8.316;2022-12-18T06:00:43;22.05;;;10.05;;
6185;SDS011;3126;52.738;8.316;2022-12-18T06:05:45;22.55;;;10.77;;
6185;SDS011;3126;52.738;8.316;2022-12-18T06:10:49;18.55;;;10.70;;
6185;SDS011;3126;52.738;8.316;2022-12-18T06:15:52;20.98;;;8.90;;
6185;SDS011;3126;52.738;8.316;2022-12-18T06:20:56;22.50;;;9.55;;
6185;SDS011;3126;52.738;8.316;2022-12-18T06:25:57;15.15;;;8.73;;
6185;SDS011;3126;52.738;8.316;2022-12-18T06:30:57;14.43;;;8.45;;
6185;SDS011;3126;52.738;8.316;2022-12-18T06:36:09;18.33;;;9.30;;
6185;SDS011;3126;52.738;8.316;2022-12-18T06:41:12;12.68;;;8.52;;
6185;SDS011;3126;52.738;8.316;2022-12-18T06:46:15;18.17;;;8.70;;
6185;SDS011;3126;52.738;8.316;2022-12-18T06:51:16;13.43;;;8.43;;
6185;SDS011;3126;52.738;8.316;2022-12-18T06:56:18;16.42;;;8.63;;
6185;SDS011;3126;52.738;8.316;2022-12-18T07:01:19;15.27;;;7.72;;
6185;SDS011;3126;52.738;8.316;2022-12-18T07:06:21;13.98;;;7.80;;
6185;SDS011;3126;52.738;8.316;2022-12-18T07:11:23;14.23;;;7.68;;
6185;SDS011;3126;52.738;8.316;2022-12-18T07:16:24;12.55;;;8.05;;
6185;SDS011;3126;52.738;8.316;2022-12-18T07:21:25;14.88;;;9.35;;
6185;SDS011;3126;52.738;8.316;2022-12-18T07:26:26;13.50;;;8.32;;
6185;SDS011;3126;52.738;8.316;2022-12-18T07:31:26;16.17;;;8.65;;
6185;SDS011;3126;52.738;8.316;2022-12-18T07:36:27;15.82;;;7.45;;
6185;SDS011;3126;52.738;8.316;2022-12-18T07:41:28;13.90;;;6.95;;
6185;SDS011;3126;52.738;8.316;2022-12-18T07:46:28;14.25;;;7.63;;
6185;SDS011;3126;52.738;8.316;2022-12-18T07:51:29;16.92;;;8.23;;
6185;SDS011;3126;52.738;8.316;2022-12-18T07:56:29;15.27;;;8.40;;
6185;SDS011;3126;52.738;8.316;2022-12-18T08:01:30;16.58;;;8.27;;
6185;SDS011;3126;52.738;8.316;2022-12-18T08:06:31;13.18;;;6.68;;
6185;SDS011;3126;52.738;8.316;2022-12-18T08:11:31;19.48;;;8.70;;
6185;SDS011;3126;52.738;8.316;2022-12-18T08:16:32;19.08;;;12.27;;
6185;SDS011;3126;52.738;8.316;2022-12-18T08:21:33;17.65;;;8.73;;
6185;SDS011;3126;52.738;8.316;2022-12-18T08:26:33;14.02;;;8.68;;
6185;SDS011;3126;52.738;8.316;2022-12-18T08:31:34;20.02;;;10.88;;
6185;SDS011;3126;52.738;8.316;2022-12-18T08:36:35;17.13;;;9.38;;
6185;SDS011;3126;52.738;8.316;2022-12-18T08:41:35;19.63;;;10.30;;
6185;SDS011;3126;52.738;8.316;2022-12-18T08:46:37;15.75;;;9.23;;
6185;SDS011;3126;52.738;8.316;2022-12-18T08:51:39;14.82;;;7.88;;
6185;SDS011;3126;52.738;8.316;2022-12-18T08:56:40;12.57;;;8.18;;
6185;SDS011;3126;52.738;8.316;2022-12-18T09:01:41;19.10;;;10.23;;
6185;SDS011;3126;52.738;8.316;2022-12-18T09:06:41;20.20;;;10.15;;
6185;SDS011;3126;52.738;8.316;2022-12-18T09:11:42;12.93;;;9.07;;
6185;SDS011;3126;52.738;8.316;2022-12-18T09:16:43;18.88;;;9.85;;
6185;SDS011;3126;52.738;8.316;2022-12-18T09:21:43;17.10;;;8.55;;
6185;SDS011;3126;52.738;8.316;2022-12-18T09:26:44;15.75;;;9.50;;
6185;SDS011;3126;52.738;8.316;2022-12-18T09:31:44;16.30;;;9.60;;
6185;SDS011;3126;52.738;8.316;2022-12-18T09:36:45;12.70;;;8.05;;
6185;SDS011;3126;52.738;8.316;2022-12-18T09:41:47;16.52;;;8.95;;
6185;SDS011;3126;52.738;8.316;2022-12-18T09:46:56;19.50;;;9.90;;
6185;SDS011;3126;52.738;8.316;2022-12-18T09:57:29;12.38;;;7.93;;
6185;SDS011;3126;52.738;8.316;2022-12-18T10:02:33;18.63;;;8.15;;
6185;SDS011;3126;52.738;8.316;2022-12-18T10:08:17;15.00;;;8.07;;
6185;SDS011;3126;52.738;8.316;2022-12-18T10:23:33;13.52;;;7.85;;
6185;SDS011;3126;52.738;8.316;2022-12-18T10:28:45;14.38;;;8.40;;
6185;SDS011;3126;52.738;8.316;2022-12-18T10:33:46;15.00;;;7.57;;
6185;SDS011;3126;52.738;8.316;2022-12-18T10:38:47;9.30;;;6.38;;
6185;SDS011;3126;52.738;8.316;2022-12-18T10:43:47;11.73;;;6.93;;
6185;SDS011;3126;52.738;8.316;2022-12-18T10:48:50;14.50;;;7.25;;
6185;SDS011;3126;52.738;8.316;2022-12-18T10:53:57;11.30;;;6.72;;
6185;SDS011;3126;52.738;8.316;2022-12-18T10:59:07;12.18;;;8.13;;
6185;SDS011;3126;52.738;8.316;2022-12-18T11:04:13;13.85;;;7.18;;
6185;SDS011;3126;52.738;8.316;2022-12-18T11:09:22;11.65;;;6.43;;
6185;SDS011;3126;52.738;8.316;2022-12-18T11:14:28;9.82;;;6.28;;
6185;SDS011;3126;52.738;8.316;2022-12-18T11:24:36;10.73;;;6.90;;
6185;SDS011;3126;52.738;8.316;2022-12-18T11:29:38;11.18;;;7.03;;
6185;SDS011;3126;52.738;8.316;2022-12-18T11:34:39;11.52;;;7.00;;
6185;SDS011;3126;52.738;8.316;2022-12-18T11:39:49;16.77;;;7.65;;
6185;SDS011;3126;52.738;8.316;2022-12-18T11:50:12;12.23;;;7.15;;
6185;SDS011;3126;52.738;8.316;2022-12-18T12:11:55;11.70;;;6.57;;
6185;SDS011;3126;52.738;8.316;2022-12-18T12:27:46;10.43;;;7.15;;
6185;SDS011;3126;52.738;8.316;2022-12-18T12:38:46;12.35;;;6.90;;
6185;SDS011;3126;52.738;8.316;2022-12-18T12:43:53;7.55;;;5.47;;
6185;SDS011;3126;52.738;8.316;2022-12-18T12:49:00;7.47;;;5.63;;
6185;SDS011;3126;52.738;8.316;2022-12-18T12:54:05;11.27;;;5.85;;
6185;SDS011;3126;52.738;8.316;2022-12-18T12:59:13;9.27;;;5.22;;
6185;SDS011;3126;52.738;8.316;2022-12-18T13:10:12;9.70;;;4.90;;
6185;SDS011;3126;52.738;8.316;2022-12-18T13:15:13;8.55;;;5.35;;
6185;SDS011;3126;52.738;8.316;2022-12-18T13:20:22;7.57;;;5.35;;
6185;SDS011;3126;52.738;8.316;2022-12-18T13:25:39;8.27;;;5.38;;
6185;SDS011;3126;52.738;8.316;2022-12-18T13:30:46;5.75;;;5.18;;
6185;SDS011;3126;52.738;8.316;2022-12-18T13:35:53;10.80;;;5.93;;
6185;SDS011;3126;52.738;8.316;2022-12-18T13:46:21;11.55;;;6.53;;
6185;SDS011;3126;52.738;8.316;2022-12-18T13:51:28;7.30;;;5.93;;
6185;SDS011;3126;52.738;8.316;2022-12-18T13:56:32;6.53;;;4.53;;
6185;SDS011;3126;52.738;8.316;2022-12-18T14:01:34;8.98;;;4.47;;
6185;SDS011;3126;52.738;8.316;2022-12-18T14:06:34;8.65;;;5.07;;
6185;SDS011;3126;52.738;8.316;2022-12-18T14:11:35;14.63;;;6.32;;
6185;SDS011;3126;52.738;8.316;2022-12-18T14:16:37;9.38;;;5.70;;
6185;SDS011;3126;52.738;8.316;2022-12-18T14:21:37;9.52;;;5.32;;
6185;SDS011;3126;52.738;8.316;2022-12-18T14:26:38;10.73;;;6.35;;
6185;SDS011;3126;52.738;8.316;2022-12-18T14:31:39;6.95;;;5.20;;
6185;SDS011;3126;52.738;8.316;2022-12-18T14:36:39;7.75;;;5.03;;
6185;SDS011;3126;52.738;8.316;2022-12-18T14:41:40;9.50;;;6.88;;
6185;SDS011;3126;52.738;8.316;2022-12-18T14:46:44;8.43;;;5.10;;
6185;SDS011;3126;52.738;8.316;2022-12-18T14:51:47;11.43;;;5.97;;
6185;SDS011;3126;52.738;8.316;2022-12-18T14:57:04;10.57;;;5.78;;
6185;SDS011;3126;52.738;8.316;2022-12-18T15:02:24;9.13;;;5.32;;
6185;SDS011;3126;52.738;8.316;2022-12-18T15:07:26;7.57;;;5.68;;
6185;SDS011;3126;52.738;8.316;2022-12-18T15:17:41;8.02;;;5.82;;
6185;SDS011;3126;52.738;8.316;2022-12-18T15:22:42;10.10;;;6.07;;
6185;SDS011;3126;52.738;8.316;2022-12-18T15:27:42;8.80;;;4.72;;
6185;SDS011;3126;52.738;8.316;2022-12-18T15:32:47;8.93;;;5.10;;
6185;SDS011;3126;52.738;8.316;2022-12-18T15:37:49;8.80;;;5.35;;
6185;SDS011;3126;52.738;8.316;2022-12-18T15:42:51;7.35;;;4.68;;
6185;SDS011;3126;52.738;8.316;2022-12-18T15:48:15;11.38;;;6.68;;
6185;SDS011;3126;52.738;8.316;2022-12-18T15:53:22;8.23;;;5.32;;
6185;SDS011;3126;52.738;8.316;2022-12-18T15:58:29;8.40;;;4.93;;
6185;SDS011;3126;52.738;8.316;2022-12-18T16:03:29;8.35;;;5.15;;
6185;SDS011;3126;52.738;8.316;2022-12-18T16:08:30;6.57;;;4.93;;
6185;SDS011;3126;52.738;8.316;2022-12-18T16:13:31;6.57;;;4.53;;
6185;SDS011;3126;52.738;8.316;2022-12-18T16:18:32;12.07;;;5.40;;
6185;SDS011;3126;52.738;8.316;2022-12-18T16:23:32;6.93;;;5.20;;
6185;SDS011;3126;52.738;8.316;2022-12-18T16:28:33;9.07;;;5.00;;
6185;SDS011;3126;52.738;8.316;2022-12-18T16:33:33;6.93;;;4.95;;
6185;SDS011;3126;52.738;8.316;2022-12-18T16:38:34;6.13;;;4.30;;
6185;SDS011;3126;52.738;8.316;2022-12-18T16:43:34;7.95;;;5.07;;
6185;SDS011;3126;52.738;8.316;2022-12-18T16:48:35;7.78;;;4.55;;
6185;SDS011;3126;52.738;8.316;2022-12-18T16:53:35;7.95;;;4.70;;
6185;SDS011;3126;52.738;8.316;2022-12-18T16:58:36;9.20;;;5.28;;
6185;SDS011;3126;52.738;8.316;2022-12-18T17:03:37;5.00;;;4.13;;
6185;SDS011;3126;52.738;8.316;2022-12-18T17:08:37;7.22;;;4.40;;
6185;SDS011;3126;52.738;8.316;2022-12-18T17:13:38;5.32;;;4.05;;
6185;SDS011;3126;52.738;8.316;2022-12-18T17:18:38;5.22;;;3.90;;
6185;SDS011;3126;52.738;8.316;2022-12-18T17:23:39;5.15;;;3.47;;
6185;SDS011;3126;52.738;8.316;2022-12-18T17:28:41;7.72;;;5.10;;
6185;SDS011;3126;52.738;8.316;2022-12-18T17:33:42;10.07;;;5.22;;
6185;SDS011;3126;52.738;8.316;2022-12-18T17:38:43;7.97;;;4.85;;
6185;SDS011;3126;52.738;8.316;2022-12-18T17:43:53;7.45;;;4.38;;
6185;SDS011;3126;52.738;8.316;2022-12-18T17:48:55;7.63;;;4.65;;
6185;SDS011;3126;52.738;8.316;2022-12-18T17:53:56;6.53;;;4.25;;
6185;SDS011;3126;52.738;8.316;2022-12-18T17:58:57;5.53;;;3.72;;
6185;SDS011;3126;52.738;8.316;2022-12-18T18:03:58;6.00;;;4.65;;
6185;SDS011;3126;52.738;8.316;2022-12-18T18:08:59;7.57;;;4.63;;
6185;SDS011;3126;52.738;8.316;2022-12-18T18:14:00;6.75;;;4.70;;
6185;SDS011;3126;52.738;8.316;2022-12-18T18:19:05;8.93;;;4.85;;
6185;SDS011;3126;52.738;8.316;2022-12-18T18:24:08;16.10;;;8.85;;
6185;SDS011;3126;52.738;8.316;2022-12-18T18:29:12;9.10;;;5.75;;
6185;SDS011;3126;52.738;8.316;2022-12-18T18:34:19;10.80;;;7.15;;
6185;SDS011;3126;52.738;8.316;2022-12-18T18:39:22;8.00;;;6.18;;
6185;SDS011;3126;52.738;8.316;2022-12-18T18:44:23;11.65;;;7.07;;
6185;SDS011;3126;52.738;8.316;2022-12-18T18:49:24;11.88;;;6.45;;
6185;SDS011;3126;52.738;8.316;2022-12-18T18:54:26;12.65;;;8.05;;
6185;SDS011;3126;52.738;8.316;2022-12-18T18:59:27;12.63;;;7.78;;
6185;SDS011;3126;52.738;8.316;2022-12-18T19:04:28;10.60;;;6.72;;
6185;SDS011;3126;52.738;8.316;2022-12-18T19:09:28;12.48;;;8.23;;
6185;SDS011;3126;52.738;8.316;2022-12-18T19:14:30;12.30;;;8.05;;
6185;SDS011;3126;52.738;8.316;2022-12-18T19:19:30;10.90;;;8.00;;
6185;SDS011;3126;52.738;8.316;2022-12-18T19:24:31;12.73;;;7.28;;
6185;SDS011;3126;52.738;8.316;2022-12-18T19:29:32;16.73;;;11.15;;
6185;SDS011;3126;52.738;8.316;2022-12-18T19:34:33;11.27;;;8.15;;
6185;SDS011;3126;52.738;8.316;2022-12-18T19:39:33;13.07;;;7.35;;
6185;SDS011;3126;52.738;8.316;2022-12-18T19:44:34;10.95;;;6.82;;
6185;SDS011;3126;52.738;8.316;2022-12-18T19:49:34;13.70;;;7.25;;
6185;SDS011;3126;52.738;8.316;2022-12-18T19:54:37;14.98;;;7.43;;
6185;SDS011;3126;52.738;8.316;2022-12-18T19:59:38;19.25;;;10.93;;
6185;SDS011;3126;52.738;8.316;2022-12-18T20:04:38;16.73;;;8.88;;
6185;SDS011;3126;52.738;8.316;2022-12-18T20:09:39;13.70;;;9.10;;
6185;SDS011;3126;52.738;8.316;2022-12-18T20:14:40;19.02;;;9.80;;
6185;SDS011;3126;52.738;8.316;2022-12-18T20:19:40;11.55;;;7.43;;
6185;SDS011;3126;52.738;8.316;2022-12-18T20:24:41;11.30;;;7.85;;
6185;SDS011;3126;52.738;8.316;2022-12-18T20:29:42;14.88;;;8.68;;
6185;SDS011;3126;52.738;8.316;2022-12-18T20:34:42;15.77;;;8.60;;
6185;SDS011;3126;52.738;8.316;2022-12-18T20:39:43;17.63;;;9.35;;
6185;SDS011;3126;52.738;8.316;2022-12-18T20:44:43;13.27;;;7.30;;
6185;SDS011;3126;52.738;8.316;2022-12-18T20:49:44;13.23;;;8.50;;
6185;SDS011;3126;52.738;8.316;2022-12-18T20:54:45;13.38;;;7.95;;
6185;SDS011;3126;52.738;8.316;2022-12-18T20:59:45;12.85;;;7.15;;
6185;SDS011;3126;52.738;8.316;2022-12-18T21:04:46;14.15;;;7.93;;
6185;SDS011;3126;52.738;8.316;2022-12-18T21:09:47;13.98;;;8.43;;
6185;SDS011;3126;52.738;8.316;2022-12-18T21:14:47;16.85;;;8.50;;
6185;SDS011;3126;52.738;8.316;2022-12-18T21:19:48;13.38;;;7.63;;
6185;SDS011;3126;52.738;8.316;2022-12-18T21:24:48;16.33;;;8.13;;
6185;SDS011;3126;52.738;8.316;2022-12-18T21:29:49;14.30;;;7.68;;
6185;SDS011;3126;52.738;8.316;2022-12-18T21:34:51;18.70;;;9.50;;
6185;SDS011;3126;52.738;8.316;2022-12-18T21:39:51;14.20;;;8.77;;
6185;SDS011;3126;52.738;8.316;2022-12-18T21:44:52;15.00;;;8.65;;
6185;SDS011;3126;52.738;8.316;2022-12-18T21:49:52;17.92;;;10.88;;
6185;SDS011;3126;52.738;8.316;2022-12-18T21:54:53;18.67;;;10.15;;
6185;SDS011;3126;52.738;8.316;2022-12-18T21:59:54;18.50;;;9.63;;
6185;SDS011;3126;52.738;8.316;2022-12-18T22:04:54;20.67;;;10.75;;
6185;SDS011;3126;52.738;8.316;2022-12-18T22:09:55;21.30;;;11.90;;
6185;SDS011;3126;52.738;8.316;2022-12-18T22:14:55;18.67;;;10.50;;
6185;SDS011;3126;52.738;8.316;2022-12-18T22:19:56;21.23;;;10.18;;
6185;SDS011;3126;52.738;8.316;2022-12-18T22:24:56;23.55;;;10.80;;
6185;SDS011;3126;52.738;8.316;2022-12-18T22:29:57;20.50;;;10.52;;
6185;SDS011;3126;52.738;8.316;2022-12-18T22:35:04;18.20;;;10.98;;
6185;SDS011;3126;52.738;8.316;2022-12-18T22:40:05;24.38;;;11.00;;
6185;SDS011;3126;52.738;8.316;2022-12-18T22:45:06;20.75;;;11.00;;
6185;SDS011;3126;52.738;8.316;2022-12-18T22:50:08;24.75;;;12.05;;
6185;SDS011;3126;52.738;8.316;2022-12-18T22:55:11;22.13;;;11.65;;
6185;SDS011;3126;52.738;8.316;2022-12-18T23:00:12;22.27;;;11.75;;
6185;SDS011;3126;52.738;8.316;2022-12-18T23:05:13;23.75;;;12.40;;
6185;SDS011;3126;52.738;8.316;2022-12-18T23:10:14;23.90;;;11.43;;
6185;SDS011;3126;52.738;8.316;2022-12-18T23:15:14;25.30;;;11.93;;
6185;SDS011;3126;52.738;8.316;2022-12-18T23:20:15;21.00;;;11.27;;
6185;SDS011;3126;52.738;8.316;2022-12-18T23:25:16;22.27;;;10.40;;
6185;SDS011;3126;52.738;8.316;2022-12-18T23:30:17;22.35;;;11.85;;
6185;SDS011;3126;52.738;8.316;2022-12-18T23:35:18;21.50;;;11.50;;
6185;SDS011;3126;52.738;8.316;2022-12-18T23:40:19;23.45;;;12.75;;
6185;SDS011;3126;52.738;8.316;2022-12-18T23:45:20;26.95;;;13.25;;
6185;SDS011;3126;52.738;8.316;2022-12-18T23:50:20;26.55;;;12.80;;
6185;SDS011;3126;52.738;8.316;2022-12-18T23:55:21;23.05;;;12.65;;
